sensor_id;sensor_type;location;lat;lon;timestamp;pressure;altitude;pressure_sealevel;temperature
15544;BMP180;7873;52.230;12.856;2024-01-25T00:01:27;100933.97;;;28.02
15544;BMP180;7873;52.230;12.856;2024-01-25T00:03:53;100944.38;;;27.99
15544;BMP180;7873;52.230;12.856;2024-01-25T00:06:20;100932.09;;;27.96
15544;BMP180;7873;52.230;12.856;2024-01-25T00:08:48;100948.94;;;27.92
15544;BMP180;7873;52.230;12.856;2024-01-25T00:11:14;100943.94;;;27.89
15544;BMP180;7873;52.230;12.856;2024-01-25T00:13:41;100947.88;;;27.86
15544;BMP180;7873;52.230;12.856;2024-01-25T00:16:07;100942.03;;;27.83
15544;BMP180;7873;52.230;12.856;2024-01-25T00:18:34;100952.84;;;27.83
15544;BMP180;7873;52.230;12.856;2024-01-25T00:21:01;100957.84;;;27.79
15544;BMP180;7873;52.230;12.856;2024-01-25T00:23:27;100957.63;;;27.74
15544;BMP180;7873;52.230;12.856;2024-01-25T00:25:55;100951.56;;;27.72
15544;BMP180;7873;52.230;12.856;2024-01-25T00:28:24;100959.22;;;27.69
15544;BMP180;7873;52.230;12.856;2024-01-25T00:30:50;100935.91;;;27.68
15544;BMP180;7873;52.230;12.856;2024-01-25T00:33:17;100953.19;;;27.67
15544;BMP180;7873;52.230;12.856;2024-01-25T00:35:44;100959.19;;;27.62
15544;BMP180;7873;52.230;12.856;2024-01-25T00:38:10;100967.50;;;27.61
15544;BMP180;7873;52.230;12.856;2024-01-25T00:40:37;100946.25;;;27.58
15544;BMP180;7873;52.230;12.856;2024-01-25T00:43:06;100970.84;;;27.56
15544;BMP180;7873;52.230;12.856;2024-01-25T00:45:33;100963.75;;;27.55
15544;BMP180;7873;52.230;12.856;2024-01-25T00:48:00;100973.94;;;27.53
15544;BMP180;7873;52.230;12.856;2024-01-25T00:50:27;100977.25;;;27.49
15544;BMP180;7873;52.230;12.856;2024-01-25T00:52:54;100969.31;;;27.47
15544;BMP180;7873;52.230;12.856;2024-01-25T00:55:22;100971.38;;;27.45
15544;BMP180;7873;52.230;12.856;2024-01-25T00:57:49;100952.22;;;27.40
15544;BMP180;7873;52.230;12.856;2024-01-25T01:00:19;100959.72;;;27.38
15544;BMP180;7873;52.230;12.856;2024-01-25T01:02:47;100953.44;;;27.38
15544;BMP180;7873;52.230;12.856;2024-01-25T01:05:14;100955.75;;;27.35
15544;BMP180;7873;52.230;12.856;2024-01-25T01:07:41;100950.50;;;27.33
15544;BMP180;7873;52.230;12.856;2024-01-25T01:10:08;100957.19;;;27.31
15544;BMP180;7873;52.230;12.856;2024-01-25T01:12:35;100964.84;;;27.27
15544;BMP180;7873;52.230;12.856;2024-01-25T01:15:02;100960.88;;;27.23
15544;BMP180;7873;52.230;12.856;2024-01-25T01:17:30;100954.84;;;27.21
15544;BMP180;7873;52.230;12.856;2024-01-25T01:19:57;100976.00;;;27.18
15544;BMP180;7873;52.230;12.856;2024-01-25T01:22:23;100966.44;;;27.15
15544;BMP180;7873;52.230;12.856;2024-01-25T01:24:50;100982.00;;;27.13
15544;BMP180;7873;52.230;12.856;2024-01-25T01:27:16;100971.59;;;27.10
15544;BMP180;7873;52.230;12.856;2024-01-25T01:29:43;100978.03;;;27.09
15544;BMP180;7873;52.230;12.856;2024-01-25T01:32:09;100986.16;;;27.09
15544;BMP180;7873;52.230;12.856;2024-01-25T01:34:37;100976.53;;;27.07
15544;BMP180;7873;52.230;12.856;2024-01-25T01:37:03;100986.91;;;27.03
15544;BMP180;7873;52.230;12.856;2024-01-25T01:39:30;100987.09;;;27.02
15544;BMP180;7873;52.230;12.856;2024-01-25T01:41:56;101009.97;;;26.99
15544;BMP180;7873;52.230;12.856;2024-01-25T01:44:23;101004.75;;;26.98
15544;BMP180;7873;52.230;12.856;2024-01-25T01:46:50;100983.50;;;26.95
15544;BMP180;7873;52.230;12.856;2024-01-25T01:49:16;100992.03;;;26.92
15544;BMP180;7873;52.230;12.856;2024-01-25T01:51:44;100995.75;;;26.91
15544;BMP180;7873;52.230;12.856;2024-01-25T01:54:11;100996.97;;;26.88
15544;BMP180;7873;52.230;12.856;2024-01-25T01:56:38;100993.63;;;26.86
15544;BMP180;7873;52.230;12.856;2024-01-25T01:59:09;100996.72;;;26.83
15544;BMP180;7873;52.230;12.856;2024-01-25T02:01:37;100983.59;;;26.80
15544;BMP180;7873;52.230;12.856;2024-01-25T02:04:03;100989.41;;;26.77
15544;BMP180;7873;52.230;12.856;2024-01-25T02:06:29;100987.75;;;26.76
15544;BMP180;7873;52.230;12.856;2024-01-25T02:08:57;100987.28;;;26.73
15544;BMP180;7873;52.230;12.856;2024-01-25T02:11:24;100992.69;;;26.73
15544;BMP180;7873;52.230;12.856;2024-01-25T02:13:51;101002.84;;;26.71
15544;BMP180;7873;52.230;12.856;2024-01-25T02:16:17;100999.69;;;26.67
15544;BMP180;7873;52.230;12.856;2024-01-25T02:18:45;101009.88;;;26.65
15544;BMP180;7873;52.230;12.856;2024-01-25T02:21:11;101000.94;;;26.65
15544;BMP180;7873;52.230;12.856;2024-01-25T02:23:39;101012.13;;;26.62
15544;BMP180;7873;52.230;12.856;2024-01-25T02:26:06;101009.63;;;26.60
15544;BMP180;7873;52.230;12.856;2024-01-25T02:28:32;101021.66;;;26.58
15544;BMP180;7873;52.230;12.856;2024-01-25T02:31:01;101016.44;;;26.56
15544;BMP180;7873;52.230;12.856;2024-01-25T02:33:28;101014.78;;;26.55
15544;BMP180;7873;52.230;12.856;2024-01-25T02:35:55;101016.63;;;26.55
15544;BMP180;7873;52.230;12.856;2024-01-25T02:38:21;101028.44;;;26.54
15544;BMP180;7873;52.230;12.856;2024-01-25T02:40:49;101030.72;;;26.50
15544;BMP180;7873;52.230;12.856;2024-01-25T02:43:15;101024.69;;;26.48
15544;BMP180;7873;52.230;12.856;2024-01-25T02:45:42;101017.59;;;26.47
15544;BMP180;7873;52.230;12.856;2024-01-25T02:48:08;101028.56;;;26.46
15544;BMP180;7873;52.230;12.856;2024-01-25T02:50:35;101026.88;;;26.45
15544;BMP180;7873;52.230;12.856;2024-01-25T02:53:01;101041.41;;;26.44
15544;BMP180;7873;52.230;12.856;2024-01-25T02:55:28;101029.97;;;26.42
15544;BMP180;7873;52.230;12.856;2024-01-25T02:57:56;101029.13;;;26.41
15544;BMP180;7873;52.230;12.856;2024-01-25T03:00:22;101030.16;;;26.40
15544;BMP180;7873;52.230;12.856;2024-01-25T03:02:48;101029.50;;;26.38
15544;BMP180;7873;52.230;12.856;2024-01-25T03:05:15;101025.34;;;26.36
15544;BMP180;7873;52.230;12.856;2024-01-25T03:07:41;101038.22;;;26.34
15544;BMP180;7873;52.230;12.856;2024-01-25T03:10:09;101044.59;;;26.33
15544;BMP180;7873;52.230;12.856;2024-01-25T03:12:35;101038.38;;;26.32
15544;BMP180;7873;52.230;12.856;2024-01-25T03:15:02;101039.59;;;26.30
15544;BMP180;7873;52.230;12.856;2024-01-25T03:17:29;101036.91;;;26.30
15544;BMP180;7873;52.230;12.856;2024-01-25T03:19:55;101038.94;;;26.28
15544;BMP180;7873;52.230;12.856;2024-01-25T03:22:22;101047.25;;;26.26
15544;BMP180;7873;52.230;12.856;2024-01-25T03:24:48;101049.31;;;26.24
15544;BMP180;7873;52.230;12.856;2024-01-25T03:27:15;101051.16;;;26.24
15544;BMP180;7873;52.230;12.856;2024-01-25T03:29:41;101045.97;;;26.22
15544;BMP180;7873;52.230;12.856;2024-01-25T03:32:10;101038.06;;;26.21
15544;BMP180;7873;52.230;12.856;2024-01-25T03:34:36;101048.84;;;26.21
15544;BMP180;7873;52.230;12.856;2024-01-25T03:39:29;101051.94;;;26.18
15544;BMP180;7873;52.230;12.856;2024-01-25T03:41:56;101051.47;;;26.14
15544;BMP180;7873;52.230;12.856;2024-01-25T03:44:22;101060.59;;;26.13
15544;BMP180;7873;52.230;12.856;2024-01-25T03:46:49;101062.66;;;26.11
15544;BMP180;7873;52.230;12.856;2024-01-25T03:49:17;101058.09;;;26.12
15544;BMP180;7873;52.230;12.856;2024-01-25T03:51:44;101052.88;;;26.10
15544;BMP180;7873;52.230;12.856;2024-01-25T03:54:10;101070.28;;;26.08
15544;BMP180;7873;52.230;12.856;2024-01-25T03:56:38;101065.09;;;26.06
15544;BMP180;7873;52.230;12.856;2024-01-25T03:59:04;101072.53;;;26.04
15544;BMP180;7873;52.230;12.856;2024-01-25T04:01:41;101077.06;;;26.04
15544;BMP180;7873;52.230;12.856;2024-01-25T04:04:07;101084.53;;;26.02
15544;BMP180;7873;52.230;12.856;2024-01-25T04:06:40;101081.84;;;26.02
15544;BMP180;7873;52.230;12.856;2024-01-25T04:09:06;101080.38;;;25.99
15544;BMP180;7873;52.230;12.856;2024-01-25T04:11:33;101077.66;;;25.99
15544;BMP180;7873;52.230;12.856;2024-01-25T04:13:59;101069.75;;;25.98
15544;BMP180;7873;52.230;12.856;2024-01-25T04:16:26;101071.78;;;25.96
15544;BMP180;7873;52.230;12.856;2024-01-25T04:18:52;101089.84;;;25.95
15544;BMP180;7873;52.230;12.856;2024-01-25T04:21:19;101081.94;;;25.94
15544;BMP180;7873;52.230;12.856;2024-01-25T04:23:47;101071.53;;;25.91
15544;BMP180;7873;52.230;12.856;2024-01-25T04:26:14;101061.94;;;25.88
15544;BMP180;7873;52.230;12.856;2024-01-25T04:28:40;101083.69;;;25.87
15544;BMP180;7873;52.230;12.856;2024-01-25T04:31:07;101063.13;;;25.86
15544;BMP180;7873;52.230;12.856;2024-01-25T04:33:32;101071.44;;;25.84
15544;BMP180;7873;52.230;12.856;2024-01-25T04:35:59;101079.66;;;25.83
15544;BMP180;7873;52.230;12.856;2024-01-25T04:38:25;101065.34;;;25.82
15544;BMP180;7873;52.230;12.856;2024-01-25T04:40:53;101082.56;;;25.81
15544;BMP180;7873;52.230;12.856;2024-01-25T04:43:20;101082.56;;;25.81
15544;BMP180;7873;52.230;12.856;2024-01-25T04:45:46;101073.63;;;25.81
15544;BMP180;7873;52.230;12.856;2024-01-25T04:48:13;101058.28;;;25.81
15544;BMP180;7873;52.230;12.856;2024-01-25T04:50:39;101081.38;;;25.84
15544;BMP180;7873;52.230;12.856;2024-01-25T04:53:06;101067.72;;;25.85
15544;BMP180;7873;52.230;12.856;2024-01-25T04:55:32;101067.34;;;25.88
15544;BMP180;7873;52.230;12.856;2024-01-25T04:58:00;101085.03;;;25.91
15544;BMP180;7873;52.230;12.856;2024-01-25T05:00:27;101090.69;;;25.96
15544;BMP180;7873;52.230;12.856;2024-01-25T05:02:53;101104.81;;;25.98
15544;BMP180;7873;52.230;12.856;2024-01-25T05:05:19;101106.97;;;26.02
15544;BMP180;7873;52.230;12.856;2024-01-25T05:07:46;101106.78;;;26.04
15544;BMP180;7873;52.230;12.856;2024-01-25T05:10:13;101114.47;;;26.07
15544;BMP180;7873;52.230;12.856;2024-01-25T05:12:39;101111.78;;;26.07
15544;BMP180;7873;52.230;12.856;2024-01-25T05:15:07;101115.50;;;26.06
15544;BMP180;7873;52.230;12.856;2024-01-25T05:17:34;101121.28;;;26.03
15544;BMP180;7873;52.230;12.856;2024-01-25T05:20:00;101114.31;;;25.94
15544;BMP180;7873;52.230;12.856;2024-01-25T05:22:28;101108.28;;;25.92
15544;BMP180;7873;52.230;12.856;2024-01-25T05:24:55;101105.28;;;25.87
15544;BMP180;7873;52.230;12.856;2024-01-25T05:27:21;101112.44;;;25.94
15544;BMP180;7873;52.230;12.856;2024-01-25T05:29:48;101103.63;;;26.00
15544;BMP180;7873;52.230;12.856;2024-01-25T05:32:16;101117.78;;;26.02
15544;BMP180;7873;52.230;12.856;2024-01-25T05:34:43;101129.38;;;26.03
15544;BMP180;7873;52.230;12.856;2024-01-25T05:37:09;101125.28;;;26.07
15544;BMP180;7873;52.230;12.856;2024-01-25T05:39:36;101124.91;;;26.10
15544;BMP180;7873;52.230;12.856;2024-01-25T05:42:03;101133.84;;;26.10
15544;BMP180;7873;52.230;12.856;2024-01-25T05:44:29;101134.88;;;26.09
15544;BMP180;7873;52.230;12.856;2024-01-25T05:46:56;101134.22;;;26.07
15544;BMP180;7873;52.230;12.856;2024-01-25T05:49:24;101157.41;;;26.02
15544;BMP180;7873;52.230;12.856;2024-01-25T05:51:50;101164.03;;;25.99
15544;BMP180;7873;52.230;12.856;2024-01-25T05:54:17;101164.03;;;25.99
15544;BMP180;7873;52.230;12.856;2024-01-25T05:56:43;101149.84;;;25.97
15544;BMP180;7873;52.230;12.856;2024-01-25T05:59:10;101166.91;;;25.98
15544;BMP180;7873;52.230;12.856;2024-01-25T06:01:36;101171.28;;;25.99
15544;BMP180;7873;52.230;12.856;2024-01-25T06:04:03;101181.41;;;25.97
15544;BMP180;7873;52.230;12.856;2024-01-25T06:06:31;101163.66;;;25.88
15544;BMP180;7873;52.230;12.856;2024-01-25T06:08:57;101168.69;;;25.68
15544;BMP180;7873;52.230;12.856;2024-01-25T06:11:24;101176.97;;;25.53
15544;BMP180;7873;52.230;12.856;2024-01-25T06:13:50;101189.13;;;25.49
15544;BMP180;7873;52.230;12.856;2024-01-25T06:16:16;101186.31;;;25.42
15544;BMP180;7873;52.230;12.856;2024-01-25T06:18:43;101202.19;;;25.37
15544;BMP180;7873;52.230;12.856;2024-01-25T06:21:09;101201.47;;;25.21
15544;BMP180;7873;52.230;12.856;2024-01-25T06:23:37;101220.41;;;25.05
15544;BMP180;7873;52.230;12.856;2024-01-25T06:26:04;101215.22;;;25.03
15544;BMP180;7873;52.230;12.856;2024-01-25T06:28:30;101210.34;;;24.99
15544;BMP180;7873;52.230;12.856;2024-01-25T06:30:57;101215.28;;;24.95
15544;BMP180;7873;52.230;12.856;2024-01-25T06:33:23;101227.25;;;24.93
15544;BMP180;7873;52.230;12.856;2024-01-25T06:35:50;101233.28;;;24.95
15544;BMP180;7873;52.230;12.856;2024-01-25T06:38:16;101239.41;;;24.89
15544;BMP180;7873;52.230;12.856;2024-01-25T06:40:45;101245.16;;;24.78
15544;BMP180;7873;52.230;12.856;2024-01-25T06:43:11;101235.59;;;24.75
15544;BMP180;7873;52.230;12.856;2024-01-25T06:45:38;101239.13;;;24.76
15544;BMP180;7873;52.230;12.856;2024-01-25T06:48:06;101245.47;;;24.83
15544;BMP180;7873;52.230;12.856;2024-01-25T06:50:33;101239.13;;;24.76
15544;BMP180;7873;52.230;12.856;2024-01-25T06:55:09;101228.69;;;24.34
15544;BMP180;7873;52.230;12.856;2024-01-25T06:57:37;101248.13;;;24.44
15544;BMP180;7873;52.230;12.856;2024-01-25T07:00:05;101248.13;;;24.60
15544;BMP180;7873;52.230;12.856;2024-01-25T07:02:33;101261.22;;;24.63
15544;BMP180;7873;52.230;12.856;2024-01-25T07:04:59;101262.28;;;24.54
15544;BMP180;7873;52.230;12.856;2024-01-25T07:07:26;101265.66;;;24.40
15544;BMP180;7873;52.230;12.856;2024-01-25T07:09:53;101280.88;;;24.17
15544;BMP180;7873;52.230;12.856;2024-01-25T07:12:21;101292.66;;;24.00
15544;BMP180;7873;52.230;12.856;2024-01-25T07:14:47;101283.59;;;23.85
15544;BMP180;7873;52.230;12.856;2024-01-25T07:17:14;101290.63;;;23.71
15544;BMP180;7873;52.230;12.856;2024-01-25T07:19:40;101290.97;;;23.60
15544;BMP180;7873;52.230;12.856;2024-01-25T07:22:07;101288.94;;;23.54
15544;BMP180;7873;52.230;12.856;2024-01-25T07:24:33;101274.00;;;23.51
15544;BMP180;7873;52.230;12.856;2024-01-25T07:27:00;101284.59;;;23.61
15544;BMP180;7873;52.230;12.856;2024-01-25T07:29:27;101276.50;;;23.76
15544;BMP180;7873;52.230;12.856;2024-01-25T07:31:54;101266.78;;;23.91
15544;BMP180;7873;52.230;12.856;2024-01-25T07:34:21;101299.72;;;23.93
15544;BMP180;7873;52.230;12.856;2024-01-25T07:36:47;101297.38;;;24.06
15544;BMP180;7873;52.230;12.856;2024-01-25T07:39:13;101304.75;;;24.12
15544;BMP180;7873;52.230;12.856;2024-01-25T07:41:40;101309.09;;;24.21
15544;BMP180;7873;52.230;12.856;2024-01-25T07:44:07;101300.38;;;24.27
15544;BMP180;7873;52.230;12.856;2024-01-25T07:46:35;101321.56;;;24.30
15544;BMP180;7873;52.230;12.856;2024-01-25T07:49:01;101321.88;;;24.35
15544;BMP180;7873;52.230;12.856;2024-01-25T07:51:28;101303.03;;;24.35
15544;BMP180;7873;52.230;12.856;2024-01-25T07:53:54;101314.47;;;24.37
15544;BMP180;7873;52.230;12.856;2024-01-25T07:56:21;101323.88;;;24.41
15544;BMP180;7873;52.230;12.856;2024-01-25T07:58:48;101316.66;;;24.42
15544;BMP180;7873;52.230;12.856;2024-01-25T08:01:17;101318.69;;;24.40
15544;BMP180;7873;52.230;12.856;2024-01-25T08:03:45;101324.41;;;24.29
15544;BMP180;7873;52.230;12.856;2024-01-25T08:06:11;101325.78;;;24.25
15544;BMP180;7873;52.230;12.856;2024-01-25T08:08:38;101339.38;;;24.23
15544;BMP180;7873;52.230;12.856;2024-01-25T08:11:04;101333.16;;;24.23
15544;BMP180;7873;52.230;12.856;2024-01-25T08:13:31;101351.16;;;24.22
15544;BMP180;7873;52.230;12.856;2024-01-25T08:15:58;101339.56;;;24.22
15544;BMP180;7873;52.230;12.856;2024-01-25T08:18:25;101355.06;;;24.20
15544;BMP180;7873;52.230;12.856;2024-01-25T08:20:55;101351.69;;;24.18
15544;BMP180;7873;52.230;12.856;2024-01-25T08:23:22;101358.56;;;24.20
15544;BMP180;7873;52.230;12.856;2024-01-25T08:25:49;101359.91;;;24.16
15544;BMP180;7873;52.230;12.856;2024-01-25T08:28:15;101372.72;;;24.14
15544;BMP180;7873;52.230;12.856;2024-01-25T08:30:41;101375.41;;;24.06
15544;BMP180;7873;52.230;12.856;2024-01-25T08:33:08;101380.63;;;24.00
15544;BMP180;7873;52.230;12.856;2024-01-25T08:35:34;101387.34;;;23.96
15544;BMP180;7873;52.230;12.856;2024-01-25T08:38:02;101376.59;;;23.96
15544;BMP180;7873;52.230;12.856;2024-01-25T08:40:29;101392.22;;;23.92
15544;BMP180;7873;52.230;12.856;2024-01-25T08:42:55;101388.00;;;23.90
15544;BMP180;7873;52.230;12.856;2024-01-25T08:45:22;101394.91;;;23.92
15544;BMP180;7873;52.230;12.856;2024-01-25T08:47:48;101395.09;;;23.91
15544;BMP180;7873;52.230;12.856;2024-01-25T08:50:16;101395.22;;;23.89
15544;BMP180;7873;52.230;12.856;2024-01-25T08:52:43;101393.72;;;23.95
15544;BMP180;7873;52.230;12.856;2024-01-25T08:55:11;101395.41;;;23.96
15544;BMP180;7873;52.230;12.856;2024-01-25T08:57:37;101389.84;;;23.97
15544;BMP180;7873;52.230;12.856;2024-01-25T09:00:06;101399.78;;;23.97
15544;BMP180;7873;52.230;12.856;2024-01-25T09:02:35;101418.09;;;23.93
15544;BMP180;7873;52.230;12.856;2024-01-25T09:05:03;101422.47;;;23.94
15544;BMP180;7873;52.230;12.856;2024-01-25T09:07:29;101427.53;;;23.97
15544;BMP180;7873;52.230;12.856;2024-01-25T09:09:56;101414.75;;;23.91
15544;BMP180;7873;52.230;12.856;2024-01-25T09:12:24;101420.13;;;23.91
15544;BMP180;7873;52.230;12.856;2024-01-25T09:14:50;101437.94;;;23.92
15544;BMP180;7873;52.230;12.856;2024-01-25T09:17:17;101438.81;;;23.93
15544;BMP180;7873;52.230;12.856;2024-01-25T09:19:47;101439.63;;;23.93
15544;BMP180;7873;52.230;12.856;2024-01-25T09:22:13;101446.69;;;23.94
15544;BMP180;7873;52.230;12.856;2024-01-25T09:24:42;101453.06;;;23.93
15544;BMP180;7873;52.230;12.856;2024-01-25T09:27:08;101460.00;;;23.96
15544;BMP180;7873;52.230;12.856;2024-01-25T09:29:36;101445.34;;;23.98
15544;BMP180;7873;52.230;12.856;2024-01-25T09:32:04;101449.03;;;23.97
15544;BMP180;7873;52.230;12.856;2024-01-25T09:34:30;101461.00;;;23.95
15544;BMP180;7873;52.230;12.856;2024-01-25T09:36:57;101462.16;;;23.92
15544;BMP180;7873;52.230;12.856;2024-01-25T09:39:24;101464.03;;;23.92
15544;BMP180;7873;52.230;12.856;2024-01-25T09:41:50;101473.09;;;23.91
15544;BMP180;7873;52.230;12.856;2024-01-25T09:44:17;101469.38;;;23.84
15544;BMP180;7873;52.230;12.856;2024-01-25T09:46:45;101491.19;;;23.81
15544;BMP180;7873;52.230;12.856;2024-01-25T09:49:12;101490.72;;;23.85
15544;BMP180;7873;52.230;12.856;2024-01-25T09:51:42;101480.81;;;23.86
15544;BMP180;7873;52.230;12.856;2024-01-25T09:54:09;101495.94;;;23.87
15544;BMP180;7873;52.230;12.856;2024-01-25T09:56:36;101492.41;;;23.86
15544;BMP180;7873;52.230;12.856;2024-01-25T09:59:03;101494.25;;;23.86
15544;BMP180;7873;52.230;12.856;2024-01-25T10:01:30;101486.38;;;23.84
15544;BMP180;7873;52.230;12.856;2024-01-25T10:03:57;101490.22;;;23.82
15544;BMP180;7873;52.230;12.856;2024-01-25T10:06:24;101493.56;;;23.84
15544;BMP180;7873;52.230;12.856;2024-01-25T10:08:49;101510.81;;;23.73
15544;BMP180;7873;52.230;12.856;2024-01-25T10:11:16;101529.16;;;23.70
15544;BMP180;7873;52.230;12.856;2024-01-25T10:13:44;101523.94;;;23.76
15544;BMP180;7873;52.230;12.856;2024-01-25T10:16:11;101520.94;;;23.79
15544;BMP180;7873;52.230;12.856;2024-01-25T10:18:40;101535.69;;;23.75
15544;BMP180;7873;52.230;12.856;2024-01-25T10:21:10;101549.16;;;23.75
15544;BMP180;7873;52.230;12.856;2024-01-25T10:23:37;101538.56;;;23.74
15544;BMP180;7873;52.230;12.856;2024-01-25T10:26:03;101537.38;;;23.69
15544;BMP180;7873;52.230;12.856;2024-01-25T10:28:30;101540.72;;;23.71
15544;BMP180;7873;52.230;12.856;2024-01-25T10:31:00;101536.53;;;23.68
15544;BMP180;7873;52.230;12.856;2024-01-25T10:33:28;101545.63;;;23.67
15544;BMP180;7873;52.230;12.856;2024-01-25T10:35:54;101543.91;;;23.66
15544;BMP180;7873;52.230;12.856;2024-01-25T10:38:29;101541.38;;;23.65
15544;BMP180;7873;52.230;12.856;2024-01-25T10:40:58;101537.69;;;23.66
15544;BMP180;7873;52.230;12.856;2024-01-25T10:43:25;101547.44;;;23.67
15544;BMP180;7873;52.230;12.856;2024-01-25T10:45:52;101547.44;;;23.67
15544;BMP180;7873;52.230;12.856;2024-01-25T10:48:21;101545.09;;;23.64
15544;BMP180;7873;52.230;12.856;2024-01-25T10:50:48;101562.91;;;23.65
15544;BMP180;7873;52.230;12.856;2024-01-25T10:53:15;101552.16;;;23.65
15544;BMP180;7873;52.230;12.856;2024-01-25T10:55:44;101555.66;;;23.65
15544;BMP180;7873;52.230;12.856;2024-01-25T10:58:13;101557.34;;;23.66
15544;BMP180;7873;52.230;12.856;2024-01-25T11:00:39;101551.13;;;23.66
15544;BMP180;7873;52.230;12.856;2024-01-25T11:03:06;101542.06;;;23.67
15544;BMP180;7873;52.230;12.856;2024-01-25T11:05:33;101533.78;;;23.60
15544;BMP180;7873;52.230;12.856;2024-01-25T11:08:00;101537.00;;;23.56
15544;BMP180;7873;52.230;12.856;2024-01-25T11:10:27;101542.78;;;23.43
15544;BMP180;7873;52.230;12.856;2024-01-25T11:12:58;101543.50;;;23.45
15544;BMP180;7873;52.230;12.856;2024-01-25T11:15:30;101554.59;;;23.50
15544;BMP180;7873;52.230;12.856;2024-01-25T11:17:57;101562.34;;;23.53
15544;BMP180;7873;52.230;12.856;2024-01-25T11:20:25;101554.81;;;23.57
15544;BMP180;7873;52.230;12.856;2024-01-25T11:22:59;101558.53;;;23.64
15544;BMP180;7873;52.230;12.856;2024-01-25T11:25:29;101543.59;;;23.69
15544;BMP180;7873;52.230;12.856;2024-01-25T11:27:58;101539.25;;;23.76
15544;BMP180;7873;52.230;12.856;2024-01-25T11:30:25;101548.56;;;23.89
15544;BMP180;7873;52.230;12.856;2024-01-25T11:32:51;101550.66;;;24.03
15544;BMP180;7873;52.230;12.856;2024-01-25T11:35:18;101559.59;;;24.20
15544;BMP180;7873;52.230;12.856;2024-01-25T11:37:45;101553.06;;;24.38
15544;BMP180;7873;52.230;12.856;2024-01-25T11:40:12;101553.81;;;24.56
15544;BMP180;7873;52.230;12.856;2024-01-25T11:42:40;101565.94;;;24.76
15544;BMP180;7873;52.230;12.856;2024-01-25T11:45:10;101568.44;;;24.94
15544;BMP180;7873;52.230;12.856;2024-01-25T11:47:38;101564.88;;;25.09
15544;BMP180;7873;52.230;12.856;2024-01-25T11:50:06;101561.19;;;25.26
15544;BMP180;7873;52.230;12.856;2024-01-25T11:52:33;101563.66;;;25.44
15544;BMP180;7873;52.230;12.856;2024-01-25T11:55:01;101551.16;;;25.58
15544;BMP180;7873;52.230;12.856;2024-01-25T11:57:28;101542.31;;;25.72
15544;BMP180;7873;52.230;12.856;2024-01-25T11:59:55;101538.91;;;25.86
15544;BMP180;7873;52.230;12.856;2024-01-25T12:02:23;101549.81;;;26.01
15544;BMP180;7873;52.230;12.856;2024-01-25T12:04:50;101553.97;;;26.11
15544;BMP180;7873;52.230;12.856;2024-01-25T12:07:19;101560.81;;;26.22
15544;BMP180;7873;52.230;12.856;2024-01-25T12:09:56;101557.69;;;26.33
15544;BMP180;7873;52.230;12.856;2024-01-25T12:12:23;101555.63;;;26.43
15544;BMP180;7873;52.230;12.856;2024-01-25T12:14:49;101552.88;;;26.51
15544;BMP180;7873;52.230;12.856;2024-01-25T12:17:17;101547.25;;;26.60
15544;BMP180;7873;52.230;12.856;2024-01-25T12:19:45;101549.03;;;26.68
15544;BMP180;7873;52.230;12.856;2024-01-25T12:22:11;101550.84;;;26.75
15544;BMP180;7873;52.230;12.856;2024-01-25T12:24:38;101547.41;;;26.81
15544;BMP180;7873;52.230;12.856;2024-01-25T12:27:04;101539.59;;;26.86
15544;BMP180;7873;52.230;12.856;2024-01-25T12:29:31;101549.50;;;26.94
15544;BMP180;7873;52.230;12.856;2024-01-25T12:31:58;101542.31;;;27.01
15544;BMP180;7873;52.230;12.856;2024-01-25T12:34:25;101549.06;;;27.05
15544;BMP180;7873;52.230;12.856;2024-01-25T12:36:52;101550.38;;;27.09
15544;BMP180;7873;52.230;12.856;2024-01-25T12:39:19;101553.22;;;27.15
15544;BMP180;7873;52.230;12.856;2024-01-25T12:41:46;101553.50;;;27.20
15544;BMP180;7873;52.230;12.856;2024-01-25T12:44:13;101562.06;;;27.24
15544;BMP180;7873;52.230;12.856;2024-01-25T12:46:39;101567.09;;;27.27
15544;BMP180;7873;52.230;12.856;2024-01-25T12:49:06;101569.91;;;27.33
15544;BMP180;7873;52.230;12.856;2024-01-25T12:51:32;101570.94;;;27.32
15544;BMP180;7873;52.230;12.856;2024-01-25T12:54:00;101567.69;;;27.37
15544;BMP180;7873;52.230;12.856;2024-01-25T12:56:26;101567.97;;;27.41
15544;BMP180;7873;52.230;12.856;2024-01-25T12:58:53;101570.94;;;27.46
15544;BMP180;7873;52.230;12.856;2024-01-25T13:01:19;101569.56;;;27.50
15544;BMP180;7873;52.230;12.856;2024-01-25T13:03:46;101566.75;;;27.58
15544;BMP180;7873;52.230;12.856;2024-01-25T13:06:13;101563.13;;;27.66
15544;BMP180;7873;52.230;12.856;2024-01-25T13:08:40;101567.63;;;27.73
15544;BMP180;7873;52.230;12.856;2024-01-25T13:11:08;101563.97;;;27.81
15544;BMP180;7873;52.230;12.856;2024-01-25T13:13:35;101558.38;;;27.82
15544;BMP180;7873;52.230;12.856;2024-01-25T13:16:01;101557.03;;;27.93
15544;BMP180;7873;52.230;12.856;2024-01-25T13:18:28;101556.09;;;28.00
15544;BMP180;7873;52.230;12.856;2024-01-25T13:20:54;101555.34;;;28.06
15544;BMP180;7873;52.230;12.856;2024-01-25T13:23:21;101552.72;;;28.13
15544;BMP180;7873;52.230;12.856;2024-01-25T13:25:47;101548.19;;;28.20
15544;BMP180;7873;52.230;12.856;2024-01-25T13:28:15;101552.00;;;28.25
15544;BMP180;7873;52.230;12.856;2024-01-25T13:30:42;101550.41;;;28.31
15544;BMP180;7873;52.230;12.856;2024-01-25T13:33:08;101535.66;;;28.33
15544;BMP180;7873;52.230;12.856;2024-01-25T13:35:35;101534.88;;;28.39
15544;BMP180;7873;52.230;12.856;2024-01-25T13:38:01;101545.16;;;28.44
15544;BMP180;7873;52.230;12.856;2024-01-25T13:40:28;101543.94;;;28.46
15544;BMP180;7873;52.230;12.856;2024-01-25T13:42:54;101539.34;;;28.47
15544;BMP180;7873;52.230;12.856;2024-01-25T13:45:22;101541.03;;;28.48
15544;BMP180;7873;52.230;12.856;2024-01-25T13:47:49;101532.72;;;28.49
15544;BMP180;7873;52.230;12.856;2024-01-25T13:50:15;101536.44;;;28.48
15544;BMP180;7873;52.230;12.856;2024-01-25T13:52:42;101546.44;;;28.48
15544;BMP180;7873;52.230;12.856;2024-01-25T13:55:08;101543.72;;;28.48
15544;BMP180;7873;52.230;12.856;2024-01-25T13:57:35;101543.28;;;28.44
15544;BMP180;7873;52.230;12.856;2024-01-25T14:00:01;101541.97;;;28.40